Time;durP1;ratioP1;P1;durP2;ratioP2;P2;SDS_P1;SDS_P2;PMS_P1;PMS_P2;Temp;Humidity;BMP_temperature;BMP_pressure;BME280_temperature;BME280_humidity;BME280_pressure;Samples;Min_cycle;Max_cycle;Signal;HPM_P1;HPM_P2
2024/01/08 00:01:37;;;;;;;7.47;5.30;;;-2.10;65.90;;;;;;5058592;28;46905;-68
2024/01/08 00:04:03;;;;;;;8.80;6.20;;;-2.00;66.90;;;;;;5060094;28;46654;-65
2024/01/08 00:06:29;;;;;;;9.13;6.05;;;-2.00;65.40;;;;;;5041601;28;46349;-66
2024/01/08 00:08:55;;;;;;;8.48;5.40;;;-2.10;65.30;;;;;;5058657;28;46429;-66
2024/01/08 00:11:21;;;;;;;8.73;4.80;;;-2.10;65.20;;;;;;5058987;28;46567;-67
2024/01/08 00:13:46;;;;;;;11.83;6.70;;;-2.10;65.10;;;;;;5057445;28;46128;-69
2024/01/08 00:16:12;;;;;;;8.07;5.17;;;-2.00;65.10;;;;;;5058036;28;46670;-68
2024/01/08 00:18:37;;;;;;;9.40;6.47;;;-2.00;64.90;;;;;;5058423;28;46440;-67
2024/01/08 00:21:03;;;;;;;11.27;5.97;;;-2.00;64.70;;;;;;5055303;28;46498;-68
2024/01/08 00:23:30;;;;;;;11.70;6.00;;;-2.00;64.70;;;;;;5056487;28;47269;-69
2024/01/08 00:25:56;;;;;;;7.70;5.60;;;-2.00;64.40;;;;;;5031323;28;46943;-69
2024/01/08 00:28:22;;;;;;;8.80;6.40;;;-1.90;64.20;;;;;;5055029;28;46515;-69
2024/01/08 00:30:47;;;;;;;8.40;5.93;;;-1.90;64.10;;;;;;5057698;28;46425;-67
2024/01/08 00:33:13;;;;;;;10.37;6.27;;;-2.00;64.00;;;;;;5055729;28;46285;-68
2024/01/08 00:35:38;;;;;;;8.00;5.80;;;-2.10;64.20;;;;;;5058133;28;46432;-67
2024/01/08 00:38:04;;;;;;;5.80;3.83;;;-2.20;64.10;;;;;;5039269;28;46460;-67
2024/01/08 00:40:30;;;;;;;7.47;4.97;;;-2.20;64.10;;;;;;5058325;28;46430;-69
2024/01/08 00:42:55;;;;;;;6.63;5.10;;;-2.30;64.40;;;;;;5058205;28;46807;-68
2024/01/08 00:45:21;;;;;;;6.10;4.30;;;-2.30;64.10;;;;;;5054887;28;46201;-68
2024/01/08 00:47:47;;;;;;;7.60;4.43;;;-2.50;63.80;;;;;;5058332;28;46716;-69
2024/01/08 00:50:13;;;;;;;7.83;5.83;;;-2.50;63.60;;;;;;5055853;28;46687;-69
2024/01/08 00:52:42;;;;;;;6.40;4.07;;;-2.50;63.70;;;;;;5056858;28;46412;-69
2024/01/08 00:55:11;;;;;;;8.55;5.30;;;-2.60;63.40;;;;;;5056603;28;46336;-69
2024/01/08 00:57:37;;;;;;;7.43;5.18;;;-2.50;63.20;;;;;;5058464;28;46454;-69
2024/01/08 01:00:04;;;;;;;7.68;4.93;;;-2.50;63.20;;;;;;5057766;28;46428;-68
2024/01/08 01:02:31;;;;;;;5.72;3.63;;;-2.50;63.00;;;;;;5055875;28;47417;-68
2024/01/08 01:04:57;;;;;;;7.32;4.85;;;-2.50;62.80;;;;;;5057942;28;46474;-69
2024/01/08 01:07:23;;;;;;;7.18;4.00;;;-2.60;62.60;;;;;;5055356;28;46587;-70
2024/01/08 01:09:48;;;;;;;4.80;3.77;;;-2.60;62.70;;;;;;5057218;28;46445;-67
2024/01/08 01:12:14;;;;;;;6.80;4.50;;;-2.70;62.60;;;;;;5056934;28;47106;-68
2024/01/08 01:14:40;;;;;;;6.33;4.30;;;-2.70;62.60;;;;;;5056843;28;45982;-67
2024/01/08 01:17:06;;;;;;;6.77;4.27;;;-2.70;62.30;;;;;;5031982;28;45813;-69
2024/01/08 01:19:32;;;;;;;7.40;4.88;;;-2.80;62.30;;;;;;5056019;28;46352;-69
2024/01/08 01:21:57;;;;;;;8.10;4.53;;;-2.80;62.30;;;;;;5055991;28;46412;-70
2024/01/08 01:24:23;;;;;;;7.23;4.27;;;-2.80;62.10;;;;;;5055465;28;46419;-69
2024/01/08 01:26:48;;;;;;;5.87;3.57;;;-2.90;61.90;;;;;;5057577;28;46636;-68
2024/01/08 01:29:14;;;;;;;6.37;3.83;;;-2.90;61.90;;;;;;5057013;28;46420;-69
2024/01/08 01:31:39;;;;;;;5.43;3.50;;;-2.90;61.70;;;;;;5056474;28;46446;-68
2024/01/08 01:34:06;;;;;;;7.60;3.63;;;-2.90;61.70;;;;;;5056784;28;46454;-68
2024/01/08 01:36:35;;;;;;;8.85;4.15;;;-2.90;61.50;;;;;;5054802;28;46411;-68
2024/01/08 01:39:02;;;;;;;5.80;4.13;;;-2.90;61.50;;;;;;5056619;28;46420;-70
2024/01/08 01:41:28;;;;;;;6.90;4.70;;;-3.00;61.30;;;;;;5054316;28;47123;-68
2024/01/08 01:43:53;;;;;;;6.57;4.70;;;-2.90;61.40;;;;;;5037305;28;46658;-69
2024/01/08 01:46:27;;;;;;;9.60;5.13;;;-2.90;61.30;;;;;;5055205;28;46779;-68
2024/01/08 01:48:52;;;;;;;7.22;4.93;;;-2.80;61.20;;;;;;5055490;28;46732;-69
2024/01/08 01:51:18;;;;;;;7.40;4.30;;;-2.80;61.10;;;;;;5056112;28;47308;-69
2024/01/08 01:53:45;;;;;;;7.13;5.03;;;-2.70;61.10;;;;;;5054559;28;46189;-69
2024/01/08 01:56:12;;;;;;;6.45;3.90;;;-2.90;61.00;;;;;;5055402;28;46611;-69
2024/01/08 01:58:38;;;;;;;7.05;5.00;;;-2.80;61.00;;;;;;5056599;28;46670;-69
2024/01/08 02:01:04;;;;;;;6.50;4.50;;;-2.90;61.00;;;;;;5057221;28;46462;-69
2024/01/08 02:03:31;;;;;;;9.57;5.97;;;-2.90;61.10;;;;;;5055965;28;46204;-69
2024/01/08 02:05:57;;;;;;;8.10;5.10;;;-3.00;61.10;;;;;;5056842;28;46450;-70
2024/01/08 02:08:23;;;;;;;7.10;4.05;;;-3.00;61.10;;;;;;5037747;28;46587;-70
2024/01/08 02:10:49;;;;;;;10.15;5.07;;;-3.00;61.00;;;;;;5055939;28;46400;-70
2024/01/08 02:13:15;;;;;;;8.67;5.03;;;-3.00;61.00;;;;;;5054813;28;46427;-70
2024/01/08 02:15:40;;;;;;;5.77;4.40;;;-2.90;60.90;;;;;;5057624;28;46485;-70
2024/01/08 02:18:06;;;;;;;7.07;5.00;;;-2.90;60.80;;;;;;5056492;28;46858;-70
2024/01/08 02:20:31;;;;;;;6.30;4.40;;;-2.80;60.80;;;;;;5054247;28;47130;-70
2024/01/08 02:22:58;;;;;;;7.13;4.73;;;-2.90;60.80;;;;;;5055440;28;46376;-70
2024/01/08 02:25:26;;;;;;;6.85;4.15;;;-2.90;61.00;;;;;;5056747;28;46835;-69
2024/01/08 02:27:52;;;;;;;6.75;3.88;;;-2.90;60.90;;;;;;5056808;28;47396;-69
2024/01/08 02:30:18;;;;;;;7.60;3.97;;;-2.90;60.90;;;;;;5055614;28;46193;-69
2024/01/08 02:32:43;;;;;;;7.63;4.57;;;-2.90;60.90;;;;;;5054742;28;46479;-70
2024/01/08 02:35:09;;;;;;;6.67;4.97;;;-2.90;60.80;;;;;;5039620;28;46381;-70
2024/01/08 02:37:34;;;;;;;5.97;4.13;;;-3.00;60.90;;;;;;5054779;28;46525;-70
2024/01/08 02:40:03;;;;;;;5.75;4.20;;;-3.00;60.90;;;;;;5055114;28;47065;-69
2024/01/08 02:42:29;;;;;;;6.22;4.43;;;-3.00;60.90;;;;;;5055482;28;46432;-70
2024/01/08 02:44:54;;;;;;;5.97;3.90;;;-2.80;61.10;;;;;;5055253;28;46791;-69
2024/01/08 02:47:20;;;;;;;4.70;3.83;;;-3.00;61.00;;;;;;5055204;28;46576;-69
2024/01/08 02:49:45;;;;;;;6.57;3.70;;;-3.00;60.90;;;;;;5029196;28;46933;-69
2024/01/08 02:52:11;;;;;;;7.87;3.57;;;-3.00;60.90;;;;;;5055061;28;46668;-68
2024/01/08 02:54:36;;;;;;;6.30;4.20;;;-3.10;60.80;;;;;;5057046;28;46416;-70
2024/01/08 02:57:03;;;;;;;8.00;4.33;;;-3.10;60.70;;;;;;5054459;28;46580;-68
2024/01/08 02:59:29;;;;;;;4.82;3.70;;;-3.10;60.70;;;;;;5036874;28;47146;-68
2024/01/08 03:01:54;;;;;;;4.83;3.90;;;-3.10;60.60;;;;;;5056972;28;46498;-69
2024/01/08 03:04:20;;;;;;;4.40;3.40;;;-3.10;60.50;;;;;;5055489;28;46444;-69
2024/01/08 03:06:45;;;;;;;5.20;4.00;;;-3.10;60.60;;;;;;5056236;28;46671;-68
2024/01/08 03:09:11;;;;;;;6.50;4.13;;;-3.10;60.50;;;;;;5058825;28;46424;-69
2024/01/08 03:11:36;;;;;;;5.73;3.80;;;-3.10;60.40;;;;;;5056885;28;46120;-69
2024/01/08 03:14:02;;;;;;;4.20;2.73;;;-3.10;60.20;;;;;;5041511;28;46437;-70
2024/01/08 03:16:27;;;;;;;5.43;3.37;;;-3.10;60.00;;;;;;5058799;28;46649;-70
2024/01/08 03:18:53;;;;;;;4.57;3.43;;;-3.20;60.10;;;;;;5060564;28;46486;-70
2024/01/08 03:21:18;;;;;;;9.07;2.73;;;-3.30;60.10;;;;;;5059263;28;46475;-70
2024/01/08 03:23:44;;;;;;;4.17;3.10;;;-3.40;60.00;;;;;;5059646;28;46453;-69
2024/01/08 03:26:10;;;;;;;4.80;3.47;;;-3.30;60.00;;;;;;5059937;28;46358;-68
2024/01/08 03:28:35;;;;;;;4.63;3.70;;;-3.20;60.00;;;;;;5058230;28;46403;-70
2024/01/08 03:31:02;;;;;;;6.00;3.47;;;-3.30;59.80;;;;;;5059619;28;46319;-69
2024/01/08 03:33:28;;;;;;;5.65;4.07;;;-3.30;59.70;;;;;;5056451;28;45966;-69
2024/01/08 03:35:55;;;;;;;3.92;2.75;;;-3.30;59.50;;;;;;5058467;28;46390;-69
2024/01/08 03:38:20;;;;;;;3.97;3.10;;;-3.30;59.40;;;;;;5035471;28;46524;-68
2024/01/08 03:40:46;;;;;;;4.97;3.10;;;-3.30;59.40;;;;;;5059401;28;46610;-68
2024/01/08 03:43:12;;;;;;;5.60;2.93;;;-3.30;59.40;;;;;;5058428;28;46455;-68
2024/01/08 03:45:37;;;;;;;4.78;2.90;;;-3.30;59.50;;;;;;5058375;28;46405;-70
2024/01/08 03:48:03;;;;;;;4.80;3.13;;;-3.40;59.30;;;;;;5058947;28;46448;-70
2024/01/08 03:50:29;;;;;;;4.88;3.55;;;-3.40;59.40;;;;;;5057859;28;46877;-70
2024/01/08 03:52:55;;;;;;;4.27;2.60;;;-3.30;59.40;;;;;;5057988;28;46530;-71
2024/01/08 03:55:20;;;;;;;3.93;3.03;;;-3.40;59.10;;;;;;5059371;28;46591;-70
2024/01/08 03:57:46;;;;;;;4.50;2.80;;;-3.40;59.20;;;;;;5059323;28;46424;-69
2024/01/08 04:00:11;;;;;;;4.07;2.97;;;-3.40;59.20;;;;;;5057821;28;46396;-68
2024/01/08 04:02:40;;;;;;;5.67;3.43;;;-3.30;59.00;;;;;;5058900;28;46309;-68
2024/01/08 04:05:10;;;;;;;5.05;3.72;;;-3.20;59.10;;;;;;5056886;28;46552;-70
2024/01/08 04:07:36;;;;;;;3.47;2.42;;;-3.20;58.80;;;;;;5057064;28;47429;-70
2024/01/08 04:10:01;;;;;;;4.67;3.17;;;-3.10;58.60;;;;;;5058488;28;45891;-69
2024/01/08 04:12:27;;;;;;;5.10;3.30;;;-3.20;58.70;;;;;;5057950;28;47265;-70
2024/01/08 04:14:52;;;;;;;15.73;7.60;;;-3.20;58.70;;;;;;5059689;28;46580;-69
2024/01/08 04:17:18;;;;;;;17.13;7.67;;;-3.10;58.80;;;;;;5058663;28;46326;-68
2024/01/08 04:19:44;;;;;;;29.27;11.70;;;-3.20;58.80;;;;;;5057960;28;46443;-69
2024/01/08 04:22:09;;;;;;;25.70;11.37;;;-3.30;58.80;;;;;;5059074;28;46760;-69
2024/01/08 04:24:35;;;;;;;13.37;6.57;;;-3.30;59.00;;;;;;5056641;28;46447;-69
2024/01/08 04:27:00;;;;;;;16.33;8.10;;;-3.30;58.80;;;;;;5058351;28;47366;-69
2024/01/08 04:29:26;;;;;;;7.23;4.27;;;-3.30;58.90;;;;;;5057606;28;46701;-69
2024/01/08 04:31:51;;;;;;;6.13;3.43;;;-3.20;58.80;;;;;;5039979;28;46450;-69
2024/01/08 04:34:17;;;;;;;5.47;2.97;;;-3.20;58.60;;;;;;5057679;28;46547;-70
2024/01/08 04:36:43;;;;;;;5.90;3.37;;;-3.10;58.30;;;;;;5056941;28;46658;-68
2024/01/08 04:39:09;;;;;;;5.47;3.30;;;-3.10;58.30;;;;;;5057264;28;46661;-69
2024/01/08 04:41:35;;;;;;;4.70;3.10;;;-3.20;58.50;;;;;;5056748;28;46755;-69
2024/01/08 04:44:01;;;;;;;5.07;3.07;;;-3.30;58.60;;;;;;5056350;28;47105;-69
2024/01/08 04:46:26;;;;;;;4.53;3.03;;;-3.30;58.70;;;;;;5056150;28;46661;-69
2024/01/08 04:48:52;;;;;;;4.83;3.10;;;-3.30;58.60;;;;;;5057000;28;46686;-69
2024/01/08 04:51:22;;;;;;;5.63;2.70;;;-3.20;59.50;;;;;;5056487;28;46015;-69
2024/01/08 04:53:48;;;;;;;6.63;3.38;;;-3.20;58.40;;;;;;5057539;28;46428;-68
2024/01/08 04:56:25;;;;;;;3.97;2.70;;;-3.20;58.30;;;;;;5039195;28;48107;-69
2024/01/08 04:58:52;;;;;;;5.78;2.95;;;-3.20;58.10;;;;;;5058096;28;46443;-69
2024/01/08 05:01:17;;;;;;;5.20;3.30;;;-3.00;58.20;;;;;;5040328;28;47754;-69
2024/01/08 05:03:43;;;;;;;5.27;2.87;;;-3.10;57.90;;;;;;5054439;28;46506;-70
2024/01/08 05:06:10;;;;;;;3.30;2.78;;;-3.20;58.20;;;;;;5055357;28;46516;-69
2024/01/08 05:08:37;;;;;;;4.78;2.90;;;-3.20;58.30;;;;;;5057018;28;46510;-69
2024/01/08 05:11:07;;;;;;;4.93;2.88;;;-3.20;58.10;;;;;;5054505;28;46416;-68
2024/01/08 05:13:33;;;;;;;5.65;3.30;;;-3.20;58.20;;;;;;5056204;28;46449;-69
2024/01/08 05:15:58;;;;;;;4.43;2.70;;;-3.30;58.30;;;;;;5057540;28;47075;-69
2024/01/08 05:18:24;;;;;;;4.47;3.03;;;-3.30;58.40;;;;;;5055025;28;46478;-69
2024/01/08 05:20:50;;;;;;;3.80;2.93;;;-3.20;58.40;;;;;;5056967;28;46685;-70
2024/01/08 05:23:15;;;;;;;4.10;2.60;;;-3.30;58.20;;;;;;5057761;28;46722;-70
2024/01/08 05:25:41;;;;;;;4.10;3.13;;;-3.30;58.30;;;;;;5054704;28;47268;-69
2024/01/08 05:28:07;;;;;;;5.33;3.07;;;-3.30;58.30;;;;;;5056296;28;46354;-70
2024/01/08 05:30:33;;;;;;;3.70;2.10;;;-3.40;58.30;;;;;;5053821;28;46616;-70
2024/01/08 05:32:59;;;;;;;4.38;2.97;;;-3.40;58.40;;;;;;5055370;28;46605;-69
2024/01/08 05:35:24;;;;;;;4.70;2.60;;;-3.40;58.20;;;;;;5055646;28;46565;-71
2024/01/08 05:37:50;;;;;;;3.50;2.50;;;-3.40;58.20;;;;;;5038210;28;46744;-70
2024/01/08 05:40:15;;;;;;;7.73;3.10;;;-3.30;58.30;;;;;;5056198;28;46556;-70
2024/01/08 05:42:41;;;;;;;4.30;2.90;;;-3.30;58.00;;;;;;5053385;28;46341;-71
2024/01/08 05:45:10;;;;;;;5.60;2.77;;;-3.20;57.90;;;;;;5055824;28;46476;-68
2024/01/08 05:47:36;;;;;;;5.43;2.97;;;-3.20;57.60;;;;;;5055229;28;46754;-68
2024/01/08 05:50:05;;;;;;;3.70;2.30;;;-3.20;57.40;;;;;;5055722;28;46395;-68
2024/01/08 05:52:31;;;;;;;4.57;2.60;;;-3.20;56.80;;;;;;5055965;28;46669;-68
2024/01/08 05:54:56;;;;;;;4.13;2.83;;;-3.20;56.50;;;;;;5054845;28;46988;-69
2024/01/08 05:57:22;;;;;;;4.67;2.53;;;-3.20;56.10;;;;;;5055709;28;46465;-68
2024/01/08 05:59:48;;;;;;;6.10;3.20;;;-3.30;56.10;;;;;;5054441;28;46412;-69
2024/01/08 06:02:14;;;;;;;3.60;2.60;;;-3.20;56.20;;;;;;5056787;28;46495;-70
2024/01/08 06:04:39;;;;;;;5.03;2.80;;;-3.20;56.00;;;;;;5054157;28;46506;-69
2024/01/08 06:07:05;;;;;;;3.83;2.53;;;-3.30;56.10;;;;;;5055720;28;46632;-68
2024/01/08 06:09:30;;;;;;;3.57;2.50;;;-3.30;56.10;;;;;;5054973;28;46391;-68
2024/01/08 06:11:58;;;;;;;4.50;3.63;;;-3.30;56.20;;;;;;5055831;28;45904;-70
2024/01/08 06:14:25;;;;;;;4.68;2.85;;;-3.20;56.10;;;;;;5055452;28;46575;-70
2024/01/08 06:16:50;;;;;;;4.47;2.75;;;-3.20;55.90;;;;;;5038474;28;46540;-70
2024/01/08 06:19:16;;;;;;;4.70;3.50;;;-3.10;55.90;;;;;;5055705;28;46384;-69
2024/01/08 06:21:41;;;;;;;4.70;3.07;;;-3.10;55.60;;;;;;5055366;28;46526;-69
2024/01/08 06:24:07;;;;;;;5.13;3.13;;;-3.10;55.50;;;;;;5054952;28;46438;-70
2024/01/08 06:26:33;;;;;;;2.67;2.30;;;-3.20;55.60;;;;;;5054456;28;46397;-70
2024/01/08 06:29:00;;;;;;;5.67;3.13;;;-3.20;55.70;;;;;;5055987;28;46451;-70
2024/01/08 06:31:26;;;;;;;3.60;2.75;;;-3.10;55.70;;;;;;5054970;28;46584;-70
2024/01/08 06:33:52;;;;;;;4.63;3.03;;;-3.10;55.50;;;;;;5054797;28;47228;-70
2024/01/08 06:36:18;;;;;;;5.13;3.25;;;-3.10;55.70;;;;;;5054291;28;46669;-70
2024/01/08 06:38:43;;;;;;;9.43;4.40;;;-3.10;55.50;;;;;;5055218;28;47544;-70
2024/01/08 06:41:10;;;;;;;6.93;3.50;;;-3.10;55.50;;;;;;5056035;28;46857;-70
2024/01/08 06:43:35;;;;;;;5.20;3.50;;;-3.00;55.40;;;;;;5055522;28;46540;-70
2024/01/08 06:46:01;;;;;;;5.07;3.30;;;-3.10;55.30;;;;;;5059864;28;45820;-69
2024/01/08 06:48:27;;;;;;;4.27;3.57;;;-3.10;55.50;;;;;;5057926;28;46463;-69
2024/01/08 06:50:52;;;;;;;5.28;3.42;;;-3.10;55.50;;;;;;5057523;28;45898;-71
2024/01/08 06:53:18;;;;;;;5.20;3.40;;;-3.10;55.50;;;;;;5058656;28;46471;-71
2024/01/08 06:55:43;;;;;;;5.60;3.37;;;-3.10;55.50;;;;;;5059489;28;46491;-69
2024/01/08 06:58:09;;;;;;;3.60;2.77;;;-3.10;55.40;;;;;;5059399;28;46690;-70
2024/01/08 07:00:35;;;;;;;4.13;3.00;;;-3.10;55.50;;;;;;5058873;28;45945;-71
2024/01/08 07:03:00;;;;;;;4.90;3.20;;;-3.10;55.30;;;;;;5058421;28;47060;-70
2024/01/08 07:05:26;;;;;;;4.37;2.90;;;-3.10;55.30;;;;;;5058203;28;45816;-69
2024/01/08 07:07:53;;;;;;;6.27;3.40;;;-3.10;55.30;;;;;;5056813;28;46566;-67
2024/01/08 07:10:19;;;;;;;4.25;3.40;;;-2.90;55.30;;;;;;5054115;28;46495;-68
2024/01/08 07:12:45;;;;;;;3.57;2.50;;;-3.00;55.00;;;;;;5055210;28;47355;-69
2024/01/08 07:15:38;;;;;;;4.25;3.40;;;-3.00;55.00;;;;;;5055526;28;46709;-69
2024/01/08 07:18:04;;;;;;;6.82;3.60;;;-3.10;55.20;;;;;;5057208;28;46578;-69
2024/01/08 07:20:29;;;;;;;5.80;3.75;;;-3.10;55.20;;;;;;5036604;28;46626;-64
2024/01/08 07:22:55;;;;;;;4.00;2.90;;;-2.90;54.70;;;;;;5054738;28;46457;-68
2024/01/08 07:25:21;;;;;;;5.75;3.33;;;-2.90;54.40;;;;;;5058345;28;46659;-68
2024/01/08 07:27:47;;;;;;;4.68;3.30;;;-2.90;54.60;;;;;;5054086;28;46431;-67
2024/01/08 07:30:13;;;;;;;6.60;3.33;;;-2.90;54.80;;;;;;5055950;28;46688;-67
2024/01/08 07:32:38;;;;;;;4.78;3.53;;;-2.90;54.70;;;;;;5055972;28;47202;-67
2024/01/08 07:35:05;;;;;;;5.82;3.40;;;-2.90;54.40;;;;;;5057675;28;46777;-66
2024/01/08 07:37:30;;;;;;;4.97;3.87;;;-2.80;54.50;;;;;;5056112;28;46388;-67
2024/01/08 07:39:56;;;;;;;5.53;3.87;;;-2.80;54.50;;;;;;5055495;28;46765;-67
2024/01/08 07:42:21;;;;;;;9.37;4.23;;;-2.70;54.60;;;;;;5051108;28;46516;-67
2024/01/08 07:44:47;;;;;;;6.50;3.93;;;-2.60;54.70;;;;;;5056380;28;46805;-66
2024/01/08 07:47:12;;;;;;;6.17;3.60;;;-2.60;54.60;;;;;;5055880;28;46445;-67
2024/01/08 07:49:39;;;;;;;4.67;3.30;;;-2.50;53.90;;;;;;5056306;28;46565;-67
2024/01/08 07:52:04;;;;;;;5.15;4.20;;;-2.50;53.60;;;;;;5058154;28;46652;-67
2024/01/08 07:54:30;;;;;;;3.90;3.50;;;-2.40;53.50;;;;;;5056930;28;45924;-67
2024/01/08 07:56:55;;;;;;;7.30;4.40;;;-2.30;53.10;;;;;;5055706;28;46488;-66
2024/01/08 07:59:21;;;;;;;6.40;4.37;;;-2.20;52.80;;;;;;5058044;28;46565;-66
2024/01/08 08:01:47;;;;;;;5.10;3.60;;;-2.20;52.70;;;;;;5059294;28;46395;-67
2024/01/08 08:04:13;;;;;;;8.50;4.40;;;-2.20;52.70;;;;;;5058587;28;46411;-68
2024/01/08 08:06:38;;;;;;;6.10;3.80;;;-2.30;53.00;;;;;;5060705;28;46528;-67
2024/01/08 08:09:05;;;;;;;7.40;3.67;;;-2.30;53.00;;;;;;5059397;28;46290;-65
2024/01/08 08:11:30;;;;;;;5.20;3.42;;;-2.30;53.10;;;;;;5059336;28;47130;-66
2024/01/08 08:13:56;;;;;;;6.60;3.87;;;-2.30;52.90;;;;;;5053336;28;46627;-68
2024/01/08 08:16:22;;;;;;;11.32;5.20;;;-2.20;52.80;;;;;;5057678;28;46479;-66
2024/01/08 08:18:48;;;;;;;9.13;4.20;;;-2.20;53.00;;;;;;5060784;28;46408;-66
2024/01/08 08:21:13;;;;;;;7.33;4.30;;;-2.20;52.70;;;;;;5061216;28;46213;-67
2024/01/08 08:23:39;;;;;;;7.70;4.03;;;-2.20;52.70;;;;;;5058137;28;46749;-65
2024/01/08 08:26:04;;;;;;;7.10;3.50;;;-2.20;52.50;;;;;;5057735;28;46513;-68
2024/01/08 08:28:30;;;;;;;6.80;4.53;;;-2.20;52.60;;;;;;5057576;28;46701;-67
2024/01/08 08:30:55;;;;;;;8.47;4.50;;;-2.30;52.70;;;;;;5054432;28;46893;-66
2024/01/08 08:33:21;;;;;;;8.87;4.40;;;-2.20;52.70;;;;;;5051425;28;46374;-65
2024/01/08 08:35:47;;;;;;;20.97;9.37;;;-2.00;52.20;;;;;;5054338;28;46361;-68
2024/01/08 08:38:12;;;;;;;24.03;10.33;;;-2.10;52.00;;;;;;5055489;28;46682;-68
2024/01/08 08:40:38;;;;;;;39.67;15.50;;;-2.00;51.80;;;;;;5057005;28;46611;-68
2024/01/08 08:43:05;;;;;;;44.10;16.30;;;-1.80;51.20;;;;;;5039964;28;46420;-68
2024/01/08 08:45:31;;;;;;;28.08;10.60;;;-1.80;51.00;;;;;;5054848;28;46599;-68
2024/01/08 08:47:57;;;;;;;71.13;25.27;;;-1.70;50.50;;;;;;5057948;28;46331;-68
2024/01/08 08:50:22;;;;;;;35.47;14.30;;;-1.90;50.50;;;;;;5059363;28;46475;-69
2024/01/08 08:52:48;;;;;;;15.10;9.30;;;-1.70;50.20;;;;;;5055485;28;46377;-67
2024/01/08 08:55:14;;;;;;;6.83;4.90;;;-1.70;49.90;;;;;;5058889;28;46348;-68
2024/01/08 08:57:39;;;;;;;6.60;4.60;;;-1.80;50.00;;;;;;5060613;28;46539;-69
2024/01/08 09:00:11;;;;;;;6.10;4.43;;;-2.00;50.40;;;;;;5059665;28;46622;-65
2024/01/08 09:02:37;;;;;;;7.93;5.18;;;-1.90;50.60;;;;;;5054947;28;46483;-68
2024/01/08 09:05:05;;;;;;;6.40;4.70;;;-2.00;50.50;;;;;;5039143;28;46595;-68
2024/01/08 09:07:30;;;;;;;7.57;5.25;;;-1.80;50.50;;;;;;5053568;28;46440;-66
2024/01/08 09:09:56;;;;;;;5.70;3.97;;;-1.70;50.20;;;;;;5056832;28;47093;-66
2024/01/08 09:12:22;;;;;;;8.40;4.73;;;-1.70;49.90;;;;;;5056180;28;46443;-68
2024/01/08 09:14:47;;;;;;;6.60;4.30;;;-1.80;50.00;;;;;;5053774;28;46506;-67
2024/01/08 09:17:13;;;;;;;6.40;4.70;;;-1.60;49.90;;;;;;5057568;28;46640;-68
2024/01/08 09:19:39;;;;;;;7.60;4.70;;;-1.50;49.40;;;;;;5054611;28;46366;-69
2024/01/08 09:22:04;;;;;;;6.73;3.57;;;-1.50;49.00;;;;;;5054042;28;46447;-69
2024/01/08 09:24:30;;;;;;;7.67;4.10;;;-1.60;49.30;;;;;;5056199;28;46438;-69
2024/01/08 09:26:55;;;;;;;7.13;5.40;;;-1.60;49.50;;;;;;5055121;28;46494;-68
2024/01/08 09:29:21;;;;;;;7.10;4.50;;;-1.50;49.20;;;;;;5053104;28;46510;-69
2024/01/08 09:31:47;;;;;;;9.63;5.30;;;-1.50;48.80;;;;;;5055155;28;45856;-68
2024/01/08 09:34:13;;;;;;;8.80;5.70;;;-1.30;48.90;;;;;;5055821;28;46696;-68
2024/01/08 09:36:38;;;;;;;10.67;5.00;;;-1.20;48.80;;;;;;5043591;22;46506;-68
2024/01/08 09:39:04;;;;;;;7.37;4.70;;;-1.10;48.10;;;;;;5008586;28;47347;-68
2024/01/08 09:41:30;;;;;;;8.20;5.27;;;-1.10;47.80;;;;;;5007886;28;46607;-67
2024/01/08 09:44:02;;;;;;;6.33;4.53;;;-1.40;48.20;;;;;;5002367;28;46463;-68
2024/01/08 09:46:31;;;;;;;7.78;4.93;;;-1.30;48.40;;;;;;5001879;28;46532;-68
2024/01/08 09:48:57;;;;;;;6.88;4.60;;;-1.20;48.40;;;;;;5001597;28;46809;-69
2024/01/08 09:51:24;;;;;;;6.55;4.20;;;-1.20;48.30;;;;;;4984696;28;46294;-68
2024/01/08 09:53:52;;;;;;;7.13;4.82;;;-1.20;47.70;;;;;;4997748;28;46453;-68
2024/01/08 09:56:20;;;;;;;8.30;4.68;;;-1.30;48.20;;;;;;5002801;28;46630;-67
2024/01/08 09:58:45;;;;;;;6.65;4.95;;;-1.30;48.20;;;;;;4998780;28;47125;-67
2024/01/08 10:01:11;;;;;;;9.70;5.73;;;-1.20;48.00;;;;;;5003749;28;46498;-66
2024/01/08 10:03:36;;;;;;;8.00;5.40;;;-1.10;47.60;;;;;;5008738;28;46625;-66
2024/01/08 10:06:09;;;;;;;9.57;5.60;;;-1.10;47.30;;;;;;5006688;28;46600;-68
2024/01/08 10:08:35;;;;;;;7.30;4.90;;;-1.10;47.60;;;;;;5000972;28;46167;-68
2024/01/08 10:11:02;;;;;;;10.15;5.20;;;-1.10;47.40;;;;;;5001827;28;46767;-68
2024/01/08 10:13:28;;;;;;;10.65;5.40;;;-1.00;46.80;;;;;;5000615;28;46678;-67
2024/01/08 10:15:54;;;;;;;6.10;4.97;;;-0.80;46.40;;;;;;5003655;28;46424;-66
2024/01/08 10:18:19;;;;;;;8.77;5.73;;;-0.80;46.40;;;;;;5002665;28;46747;-65
2024/01/08 10:20:45;;;;;;;7.83;5.23;;;-0.70;46.60;;;;;;4986442;28;46823;-66
2024/01/08 10:23:16;;;;;;;7.72;5.20;;;-0.90;46.90;;;;;;5003592;28;46769;-67
2024/01/08 10:25:49;;;;;;;6.90;4.85;;;-0.90;46.90;;;;;;5003861;28;46480;-65
2024/01/08 10:28:18;;;;;;;10.00;4.80;;;-0.90;46.70;;;;;;4998865;28;46555;-68
2024/01/08 10:30:44;;;;;;;7.25;4.43;;;-0.90;46.70;;;;;;5002419;28;46613;-68
2024/01/08 10:33:10;;;;;;;8.37;4.80;;;-0.80;46.40;;;;;;5000377;28;46229;-69
2024/01/08 10:35:37;;;;;;;5.77;4.00;;;-0.50;46.20;;;;;;5001248;28;45852;-69
2024/01/08 10:38:04;;;;;;;9.15;5.63;;;-0.50;45.50;;;;;;4995849;28;46533;-66
2024/01/08 10:40:30;;;;;;;8.93;5.35;;;-0.30;44.60;;;;;;5001506;28;46468;-66
2024/01/08 10:42:56;;;;;;;11.23;6.00;;;-0.30;43.80;;;;;;4998714;28;46496;-67
2024/01/08 10:45:22;;;;;;;8.18;5.35;;;-0.30;43.80;;;;;;5001740;28;46593;-68
2024/01/08 10:48:05;;;;;;;9.37;5.20;;;0.20;44.30;;;;;;4986945;28;46681;-74
2024/01/08 10:50:31;;;;;;;7.85;4.35;;;0.30;43.00;;;;;;5003725;28;46549;-74
2024/01/08 10:52:57;;;;;;;9.48;5.85;;;0.00;43.50;;;;;;5002367;28;46530;-73
2024/01/08 10:55:23;;;;;;;8.20;5.60;;;-0.30;43.80;;;;;;5001226;28;46419;-74
2024/01/08 10:58:02;;;;;;;8.10;5.60;;;-0.40;43.80;;;;;;4999177;28;47142;-73
2024/01/08 11:00:29;;;;;;;10.75;5.60;;;-0.30;43.80;;;;;;4999902;28;46650;-74
2024/01/08 11:02:55;;;;;;;8.13;5.22;;;-0.20;42.90;;;;;;5000077;28;46402;-73
2024/01/08 11:05:21;;;;;;;11.82;5.53;;;0.00;42.30;;;;;;4996418;28;46496;-73
2024/01/08 11:07:51;;;;;;;8.98;5.28;;;0.10;41.30;;;;;;5002141;28;47632;-74
2024/01/08 11:10:17;;;;;;;6.78;4.50;;;-0.30;41.70;;;;;;4997667;28;46445;-73
2024/01/08 11:12:56;;;;;;;7.75;5.10;;;-0.50;42.40;;;;;;5001057;28;46383;-73
2024/01/08 11:15:28;;;;;;;8.30;5.13;;;-0.70;43.30;;;;;;5002070;28;46393;-73
2024/01/08 11:17:57;;;;;;;10.10;5.72;;;-0.60;42.90;;;;;;5000436;28;46425;-73
2024/01/08 11:20:46;;;;;;;10.85;5.88;;;-0.70;42.90;;;;;;4998813;28;46622;-74
2024/01/08 11:23:38;;;;;;;9.55;5.68;;;-0.70;43.40;;;;;;5001781;28;46569;-75
2024/01/08 11:26:27;;;;;;;14.45;6.93;;;-0.50;43.10;;;;;;5001103;28;46371;-73
2024/01/08 11:29:04;;;;;;;9.75;5.18;;;-0.30;42.40;;;;;;5002745;28;46771;-73
2024/01/08 11:31:58;;;;;;;7.25;4.65;;;-0.10;41.60;;;;;;5007449;28;46423;-73
2024/01/08 11:35:03;;;;;;;7.57;5.05;;;-0.10;41.10;;;;;;5001751;28;46442;-73
2024/01/08 11:37:39;;;;;;;9.15;6.10;;;-0.30;40.80;;;;;;5008422;28;46225;-73
2024/01/08 11:40:18;;;;;;;9.80;5.05;;;-0.30;41.10;;;;;;5005461;28;46980;-73
2024/01/08 11:42:49;;;;;;;14.55;7.32;;;-0.10;40.80;;;;;;5009515;28;46484;-73
2024/01/08 11:45:16;;;;;;;8.75;5.70;;;-0.30;41.10;;;;;;5004003;28;46357;-73
2024/01/08 11:47:43;;;;;;;9.65;5.18;;;-0.20;40.90;;;;;;5001031;28;45907;-74
2024/01/08 11:50:09;;;;;;;9.30;5.03;;;-0.30;41.10;;;;;;5004281;28;47060;-73
2024/01/08 11:52:37;;;;;;;7.67;5.30;;;-0.30;41.20;;;;;;5002349;28;46397;-72
2024/01/08 11:55:04;;;;;;;8.55;4.70;;;-0.10;41.00;;;;;;5000208;28;46409;-73
2024/01/08 11:57:31;;;;;;;10.00;4.72;;;0.00;40.60;;;;;;5002444;28;46449;-73
2024/01/08 11:59:57;;;;;;;9.20;5.40;;;-0.10;40.00;;;;;;5004516;28;47422;-72
2024/01/08 12:02:25;;;;;;;14.00;7.00;;;0.00;40.10;;;;;;5006211;28;46321;-73
2024/01/08 12:04:57;;;;;;;8.82;5.55;;;0.00;39.90;;;;;;5000740;28;45856;-73
2024/01/08 12:07:25;;;;;;;6.85;5.03;;;-0.20;39.90;;;;;;5002371;28;46430;-75
2024/01/08 12:09:51;;;;;;;7.68;4.38;;;-0.10;39.80;;;;;;5000365;28;47221;-73
2024/01/08 12:12:18;;;;;;;9.20;5.90;;;-0.10;39.80;;;;;;5001993;28;46556;-75
2024/01/08 12:14:45;;;;;;;7.90;5.50;;;-0.10;39.00;;;;;;4997158;28;46546;-72
2024/01/08 12:17:12;;;;;;;9.73;5.78;;;0.10;38.20;;;;;;5003809;28;46785;-73
2024/01/08 12:19:47;;;;;;;9.55;5.93;;;0.10;38.10;;;;;;5000544;28;46431;-72
2024/01/08 12:22:14;;;;;;;8.60;5.30;;;0.20;37.50;;;;;;5004937;28;46511;-74
2024/01/08 12:24:40;;;;;;;6.53;5.07;;;0.20;37.80;;;;;;5001243;28;46441;-74
2024/01/08 12:27:07;;;;;;;14.93;6.60;;;0.20;37.20;;;;;;4999706;28;46571;-73
2024/01/08 12:29:40;;;;;;;9.27;5.90;;;0.20;37.50;;;;;;4998394;28;46426;-74
2024/01/08 12:32:11;;;;;;;12.98;7.22;;;0.30;37.10;;;;;;4999152;28;46489;-72
2024/01/08 12:34:38;;;;;;;8.32;5.75;;;0.20;37.60;;;;;;5001480;28;46730;-76
2024/01/08 12:37:05;;;;;;;9.02;5.47;;;0.30;37.20;;;;;;4997289;28;46401;-75
2024/01/08 12:39:33;;;;;;;8.13;5.18;;;0.10;37.10;;;;;;5003055;28;46796;-74
2024/01/08 12:42:20;;;;;;;8.82;5.70;;;0.10;37.70;;;;;;5000286;28;46681;-74
2024/01/08 12:44:50;;;;;;;7.85;5.35;;;0.20;37.50;;;;;;5001949;28;46549;-73